Hlavní strana
METAR-TAF:

METAR-TAF

Letiště :

Letiště Maribor

Maribor, Slovinsko

zeměpisná šířka: 46-29N, zeměpisná délka: 015-41E, výška: 264 m

Aktuální stav počasí

Zpráva byla vytvořena před 19 minutami, v 17:30 UTC
Západoseverozápadní vítr 1 kt
Teplota -4°C
Vlhkost vzduchu 86%
Tlak 1025 hPa
Viditelnost: 6000 m

METAR: LJMB 171730Z 30001KT 6000 NSC M04/M06 Q1025

Čas: 18:49 (17:49 UTC)

Předpověď počasí

Zpráva byla vytvořena před 49 minutami, v 17:00 UTC
Předpověď platná od 17 v 18 UTC do 18 v 18 UTC
Severní vítr 4 kt
Viditelnost: 7000 m
Dočasný
od 18 v 00 UTC do 18 v 08 UTC
Viditelnost: 3500 m
kouřmo
Změna
od 18 v 09 UTC do 18 v 11 UTC
Východní vítr 3 kt

TAF: LJMB 171700Z 1718/1818 36004KT 7000 NSC TEMPO 1800/1808 3500 BR BECMG 1809/1811 08003KT

Stav a předpovědi počasí z více než 4 000 letišť (zprávy METAR a TAF).

Červené a žluté tečky na mapě představují dostupné meteorologické stanice.

Když kurzor umístíte na tečku, zobrazí se název stanice.

Pak kliknutím zobrazíte stav a předpověď počasí.

Chcete-li změnit mapu, kliknutím na zelené tlačítko se znaménkem +mapu přiblížíte, kliknutím na zelené tlačítko se znaménkem – mapu oddálíte a kliknutím na zelené šipky přejdete na sousední mapy.


METAR-TAF: